Edwards, CA (93524)

2:44 PM PST on January 21, 2017 (GMT -0800)
Edwards AFB | | Change Station

Elev 2300 ft 34.91 °N, 117.88 °W | Updated 24 minutes ago

Mostly Cloudy
Mostly Cloudy
50 °F
Feels Like 50 °F
N
31
Wind Variable Wind from WSW
Gusts 36 mph

Today
High -- | Low -- °F
--% Chance of Precip.
Yesterday
High -- | Low -- °F
Precip. -- in
Pressure 29.83 in
Visibility 90.0 miles
Clouds Few 5500 ft
Mostly Cloudy 16000 ft
Dew Point 34 °F
Humidity 54%
Rainfall 0.00 in
Snow Depth Not available.
6:56 AM 5:09 PM
Waning Crescent, 31% visible
SPECI KEDW 212220Z 25027G31KT 90SM FEW055 BKN160 10/01 A2983 RMK AO2A
Pressure 29.83 in
Visibility 90.0 miles
Clouds Few 5500 ft
Mostly Cloudy 16000 ft
Dew Point 34 °F
Humidity 54%
Rainfall 0.00 in
Snow Depth Not available.
6:56 AM 5:09 PM
Waning Crescent, 31% visible
SPECI KEDW 212220Z 25027G31KT 90SM FEW055 BKN160 10/01 A2983 RMK AO2A

Get Your Daily Forecast Email!

Thanks for signing up!

Be on the lookout for a verification email in your inbox.

You'll start receiving the daily forecast at 8 AM.

×

10-Day Weather Forecast

Almanac

Astronomy

Jan. 21, 2017 Rise Set
Actual Time
Civil Twilight
Nautical Twilight
Astronomical Twilight
Moon
Length of Visible Light
Length of Day
Tomorrow will be .
, % of the Moon is Illuminated

Today's Extremes

State Highs State Lows

Community

WunderPhotos

Upload Photos

1,962,540 photos uploaded!

WunderBlog® & News

Nearby

Air Quality

  Air Quality AQ Index Pollutant
Not available.

Snow Depth

Station Depth Elevation

Earthquake Activity

City Distance Mag. Time & Date
Minimum magnitude displayed is 2.5.

Coastal Water Temperatures

Place Temperature

Stations

Nearby Weather Stations

Station Location Temp. Windchill Dew Point Humidity Wind Precip. Elev Updated Type
                   

Watches & Warnings

Small Craft Advisory, Gale Warning
Issued: 2:14 PM PST Jan. 21, 2017 – National Weather Service

... Small Craft Advisory now in effect until 6 am PST Sunday...
... Gale Warning in effect from 6 am to 2 PM PST Sunday...

The National Weather Service in Los Angeles/Oxnard has issued a
Gale Warning... which is in effect from 6 am to 2 PM PST Sunday.

* Winds... south winds 20 to 30 kt with gusts to 40 kt are
expected when winds are strongest.

* Seas... combined seas of 9 to 12 feet with periods around 17
seconds are expected when waves are largest.

See the coastal waters forecast (cwflox) for more details.

Precautionary/preparedness actions...

A Gale Warning means winds of 34 to 47 knots are imminent or
occuring. Operating a vessel in gale conditions requires
experience and properly equipped vessels. It is highly
recommended that mariners without the proper experience seek safe
Harbor prior to the onset of gale conditions.

A Small Craft Advisory means that hazardous sea conditions will
exist for small craft. Inexperienced mariners... especially those
operating smaller vessels should avoid navigating in these
conditions.